Time;durP1;ratioP1;P1;durP2;ratioP2;P2;SDS_P1;SDS_P2;PMS_P1;PMS_P2;Temp;Humidity;BMP_temperature;BMP_pressure;BME280_temperature;BME280_humidity;BME280_pressure;Samples;Min_cycle;Max_cycle;Signal;HPM_P1;HPM_P2
2023/03/23 00:03:28;;;;;;;;;;;;;;;;;;5028810;28;6683;-62
2023/03/23 00:06:02;;;;;;;;;;;;;;;;;;5016237;28;7689;-62
2023/03/23 00:15:48;;;;;;;;;;;;;;;;;;5028062;28;7280;-62
2023/03/23 00:18:40;;;;;;;;;;;;;;;;;;5037183;28;7118;-62
2023/03/23 00:21:07;;;;;;;;;;;;;;;;;;5037406;28;7033;-62
2023/03/23 00:26:49;;;;;;;;;;;;;;;;;;5017602;28;7102;-62
2023/03/23 00:29:20;;;;;;;;;;;;;;;;;;5017426;28;7749;-62
2023/03/23 00:32:04;;;;;;;;;;;;;;;;;;5017668;28;7273;-62
2023/03/23 00:34:33;;;;;;;;;;;;;;;;;;5017588;28;7175;-62
2023/03/23 00:36:59;;;;;;;;;;;;;;;;;;5017714;28;7342;-62
2023/03/23 00:39:26;;;;;;;;;;;;;;;;;;5017579;28;7151;-62
2023/03/23 00:41:54;;;;;;;;;;;;;;;;;;5017559;28;7231;-62
2023/03/23 00:47:22;;;;;;;;;;;;;;;;;;5017086;28;6743;-62
2023/03/23 00:49:49;;;;;;;;;;;;;;;;;;5017881;28;7025;-62
2023/03/23 00:55:18;;;;;;;;;;;;;;;;;;5017205;28;6683;-62
2023/03/23 00:57:44;;;;;;;;;;;;;;;;;;5035453;28;7165;-62
2023/03/23 01:00:10;;;;;;;;;;;;;;;;;;5036631;28;7292;-62
2023/03/23 01:05:39;;;;;;;;;;;;;;;;;;5036591;28;6691;-62
2023/03/23 01:11:03;;;;;;;;;;;;;;;;;;5036941;28;6990;-62
2023/03/23 01:13:28;;;;;;;;;;;;;;;;;;5033606;28;7056;-62
2023/03/23 01:15:54;;;;;;;;;;;;;;;;;;5036383;28;7369;-62
2023/03/23 01:21:24;;;;;;;;;;;;;;;;;;5036465;28;6831;-62
2023/03/23 01:24:10;;;;;;;;;;;;;;;;;;5036570;28;7067;-62
2023/03/23 01:26:37;;;;;;;;;;;;;;;;;;5016569;28;6993;-62
2023/03/23 01:29:03;;;;;;;;;;;;;;;;;;5016792;28;7476;-62
2023/03/23 01:31:29;;;;;;;;;;;;;;;;;;5016221;28;6971;-62
2023/03/23 01:33:56;;;;;;;;;;;;;;;;;;5016204;28;7255;-62
2023/03/23 01:36:26;;;;;;;;;;;;;;;;;;5016693;28;7198;-62
2023/03/23 01:38:52;;;;;;;;;;;;;;;;;;5016202;28;7449;-62
2023/03/23 01:41:19;;;;;;;;;;;;;;;;;;5016374;28;7577;-62
2023/03/23 01:44:13;;;;;;;;;;;;;;;;;;5016124;28;7003;-62
2023/03/23 01:46:39;;;;;;;;;;;;;;;;;;5016243;28;7045;-62
2023/03/23 01:51:59;;;;;;;;;;;;;;;;;;5016297;28;6961;-62
2023/03/23 01:54:26;;;;;;;;;;;;;;;;;;5015798;28;6990;-62
2023/03/23 01:56:58;;;;;;;;;;;;;;;;;;5015727;28;7190;-63
2023/03/23 01:59:26;;;;;;;;;;;;;;;;;;5016795;28;7083;-62
2023/03/23 02:01:53;;;;;;;;;;;;;;;;;;5015698;28;7383;-62
2023/03/23 02:04:21;;;;;;;;;;;;;;;;;;5015910;28;7113;-62
2023/03/23 02:06:47;;;;;;;;;;;;;;;;;;5026515;28;7243;-62
2023/03/23 02:09:16;;;;;;;;;;;;;;;;;;5036431;28;7121;-62
2023/03/23 02:11:55;;;;;;;;;;;;;;;;;;5035154;28;7244;-62
2023/03/23 02:14:22;;;;;;;;;;;;;;;;;;5035654;28;7211;-62
2023/03/23 02:16:57;;;;;;;;;;;;;;;;;;5035169;28;7259;-62
2023/03/23 02:25:40;;;;;;;;;;;;;;;;;;5035700;28;6948;-62
2023/03/23 02:31:16;;;;;;;;;;;;;;;;;;5035437;28;6900;-62
2023/03/23 02:33:57;;;;;;;;;;;;;;;;;;5034594;28;7126;-62
2023/03/23 02:36:24;;;;;;;;;;;;;;;;;;5034976;28;7360;-62
2023/03/23 02:39:02;;;;;;;;;;;;;;;;;;5035152;28;7501;-62
2023/03/23 02:41:31;;;;;;;;;;;;;;;;;;5018457;28;7646;-62
2023/03/23 02:43:58;;;;;;;;;;;;;;;;;;5034731;28;6939;-62
2023/03/23 02:46:25;;;;;;;;;;;;;;;;;;5031368;28;7204;-62
2023/03/23 02:48:56;;;;;;;;;;;;;;;;;;5015139;28;7105;-62
2023/03/23 02:51:23;;;;;;;;;;;;;;;;;;5015261;28;7133;-62
2023/03/23 02:53:52;;;;;;;;;;;;;;;;;;4997490;28;8503;-62
2023/03/23 02:59:21;;;;;;;;;;;;;;;;;;5014802;28;6969;-62
2023/03/23 03:01:58;;;;;;;;;;;;;;;;;;5015043;28;7160;-62
2023/03/23 03:04:27;;;;;;;;;;;;;;;;;;5015096;28;7168;-62
2023/03/23 03:07:02;;;;;;;;;;;;;;;;;;5015914;28;7161;-62
2023/03/23 03:09:38;;;;;;;;;;;;;;;;;;5014901;28;7240;-62
2023/03/23 03:12:17;;;;;;;;;;;;;;;;;;5033405;28;7495;-62
2023/03/23 03:17:49;;;;;;;;;;;;;;;;;;5033311;28;7080;-62
2023/03/23 03:23:19;;;;;;;;;;;;;;;;;;5034783;28;6681;-62
2023/03/23 03:28:49;;;;;;;;;;;;;;;;;;5034456;28;6923;-62
2023/03/23 03:31:49;;;;;;;;;;;;;;;;;;5035069;28;7205;-62
2023/03/23 03:34:18;;;;;;;;;;;;;;;;;;5034458;28;6981;-62
2023/03/23 03:36:45;;;;;;;;;;;;;;;;;;5034434;28;7405;-62
2023/03/23 03:39:14;;;;;;;;;;;;;;;;;;5034184;28;7050;-62
2023/03/23 03:41:40;;;;;;;;;;;;;;;;;;5037980;28;7221;-62
2023/03/23 03:44:07;;;;;;;;;;;;;;;;;;5038334;28;7157;-62
2023/03/23 03:46:34;;;;;;;;;;;;;;;;;;5037993;28;7100;-62
2023/03/23 03:55:06;;;;;;;;;;;;;;;;;;5037837;28;6691;-62
2023/03/23 03:57:33;;;;;;;;;;;;;;;;;;5038092;28;7168;-62
2023/03/23 04:00:12;;;;;;;;;;;;;;;;;;5038070;28;7189;-62
2023/03/23 04:02:38;;;;;;;;;;;;;;;;;;5037768;28;6971;-62
2023/03/23 04:05:04;;;;;;;;;;;;;;;;;;5037644;28;7134;-62
2023/03/23 04:07:53;;;;;;;;;;;;;;;;;;5037964;28;7130;-62
2023/03/23 04:10:21;;;;;;;;;;;;;;;;;;5037614;28;6976;-62
2023/03/23 04:12:47;;;;;;;;;;;;;;;;;;5031476;28;7430;-62
2023/03/23 04:15:13;;;;;;;;;;;;;;;;;;5018031;28;7430;-62
2023/03/23 04:17:40;;;;;;;;;;;;;;;;;;5017551;28;7049;-62
2023/03/23 04:20:15;;;;;;;;;;;;;;;;;;5017822;28;6992;-62
2023/03/23 04:22:43;;;;;;;;;;;;;;;;;;5017868;28;6991;-62
2023/03/23 04:25:11;;;;;;;;;;;;;;;;;;5018715;28;7118;-62
2023/03/23 04:27:37;;;;;;;;;;;;;;;;;;5017359;28;7339;-62
2023/03/23 04:30:04;;;;;;;;;;;;;;;;;;5017461;28;7034;-62
2023/03/23 04:32:30;;;;;;;;;;;;;;;;;;5017793;28;6918;-62
2023/03/23 04:35:07;;;;;;;;;;;;;;;;;;5017480;28;7114;-62
2023/03/23 04:37:34;;;;;;;;;;;;;;;;;;5017306;28;7183;-62
2023/03/23 04:40:00;;;;;;;;;;;;;;;;;;5017682;28;7166;-62
2023/03/23 04:42:30;;;;;;;;;;;;;;;;;;5018259;28;7424;-62
2023/03/23 04:44:59;;;;;;;;;;;;;;;;;;5017656;28;7318;-62
2023/03/23 04:47:29;;;;;;;;;;;;;;;;;;5017427;28;7239;-62
2023/03/23 04:49:56;;;;;;;;;;;;;;;;;;5017433;28;7217;-62
2023/03/23 04:52:22;;;;;;;;;;;;;;;;;;5016288;28;7225;-62
2023/03/23 04:54:47;;;;;;;;;;;;;;;;;;5017422;28;6933;-62
2023/03/23 05:00:16;;;;;;;;;;;;;;;;;;5017123;28;6688;-62
2023/03/23 05:03:16;;;;;;;;;;;;;;;;;;5017253;28;6965;-62
2023/03/23 05:05:43;;;;;;;;;;;;;;;;;;5016763;28;7289;-62
2023/03/23 05:11:13;;;;;;;;;;;;;;;;;;5016790;28;6991;-62
2023/03/23 05:13:39;;;;;;;;;;;;;;;;;;5016901;28;7159;-63
2023/03/23 05:16:05;;;;;;;;;;;;;;;;;;5016808;28;6804;-62
2023/03/23 05:18:46;;;;;;;;;;;;;;;;;;5016496;28;6929;-62
2023/03/23 05:21:11;;;;;;;;;;;;;;;;;;5016746;28;7283;-62
2023/03/23 05:23:37;;;;;;;;;;;;;;;;;;5016585;28;7376;-62
2023/03/23 05:26:23;;;;;;;;;;;;;;;;;;5016407;28;6928;-62
2023/03/23 05:28:52;;;;;;;;;;;;;;;;;;5016717;28;7139;-62
2023/03/23 05:31:18;;;;;;;;;;;;;;;;;;5016269;28;7055;-62
2023/03/23 05:37:03;;;;;;;;;;;;;;;;;;5016243;28;6687;-62
2023/03/23 05:39:32;;;;;;;;;;;;;;;;;;5017098;28;7273;-62
2023/03/23 05:41:58;;;;;;;;;;;;;;;;;;5016466;28;7121;-62
2023/03/23 05:44:58;;;;;;;;;;;;;;;;;;5016075;28;6986;-62
2023/03/23 05:47:25;;;;;;;;;;;;;;;;;;5016260;28;7079;-62
2023/03/23 05:49:51;;;;;;;;;;;;;;;;;;5014918;28;8477;-62
2023/03/23 05:52:18;;;;;;;;;;;;;;;;;;5016313;28;7217;-62
2023/03/23 05:54:44;;;;;;;;;;;;;;;;;;5015899;28;6973;-62
2023/03/23 05:57:46;;;;;;;;;;;;;;;;;;5016023;28;7181;-62
2023/03/23 06:00:19;;;;;;;;;;;;;;;;;;5015846;28;7007;-62
2023/03/23 06:06:00;;;;;;;;;;;;;;;;;;5015812;28;6830;-62
2023/03/23 06:08:26;;;;;;;;;;;;;;;;;;5015799;28;7056;-62
2023/03/23 06:10:51;;;;;;;;;;;;;;;;;;5022251;28;7185;-63
2023/03/23 06:13:17;;;;;;;;;;;;;;;;;;5035415;28;7285;-62
2023/03/23 06:18:46;;;;;;;;;;;;;;;;;;5034706;28;6894;-62
2023/03/23 06:21:48;;;;;;;;;;;;;;;;;;5035451;28;7050;-62
2023/03/23 06:27:10;;;;;;;;;;;;;;;;;;5015839;28;6911;-95
2023/03/23 06:29:51;;;;;;;;;;;;;;;;;;5029701;28;7018;-94
2023/03/23 06:32:18;;;;;;;;;;;;;;;;;;5130589;23;7051;-96
2023/03/23 06:34:54;;;;;;;;;;;;;;;;;;;;;
2023/03/23 06:37:20;;;;;;;;;;;;;;;;;;5053834;28;6815;-95
2023/03/23 06:39:47;;;;;;;;;;;;;;;;;;5049955;28;7058;-96
2023/03/23 06:42:13;;;;;;;;;;;;;;;;;;5050413;28;7169;-95
2023/03/23 06:55:03;;;;;;;;;;;;;;;;;;5071868;23;8037;-53
2023/03/23 06:57:28;;;;;;;;;;;;;;;;;;5051395;23;8803;-62
2023/03/23 07:02:57;;;;;;;;;;;;;;;;;;4995206;28;6967;-62
2023/03/23 07:05:22;;;;;;;;;;;;;;;;;;4996360;28;6926;-63
2023/03/23 07:10:52;;;;;;;;;;;;;;;;;;4994916;28;6951;-56
2023/03/23 07:26:41;;;;;;;;;;;;;;;;;;5034288;28;7012;-53
2023/03/23 07:29:13;;;;;;;;;;;;;;;;;;5033879;28;8464;-53
2023/03/23 07:31:38;;;;;;;;;;;;;;;;;;5034282;28;7973;-55
2023/03/23 07:34:23;;;;;;;;;;;;;;;;;;5035199;28;7388;-55
2023/03/23 07:36:49;;;;;;;;;;;;;;;;;;5034373;28;7226;-54
2023/03/23 07:39:15;;;;;;;;;;;;;;;;;;5034590;28;7043;-53
2023/03/23 07:41:47;;;;;;;;;;;;;;;;;;5034511;28;7135;-52
2023/03/23 07:44:12;;;;;;;;;;;;;;;;;;5034510;28;7164;-52
2023/03/23 07:46:38;;;;;;;;;;;;;;;;;;5033973;28;7211;-53
2023/03/23 07:52:07;;;;;;;;;;;;;;;;;;5034286;28;6935;-57
2023/03/23 07:57:37;;;;;;;;;;;;;;;;;;5034146;28;6683;-52
2023/03/23 08:03:07;;;;;;;;;;;;;;;;;;5034173;28;6939;-53
2023/03/23 08:05:44;;;;;;;;;;;;;;;;;;5034244;28;7655;-54
2023/03/23 08:08:10;;;;;;;;;;;;;;;;;;5034192;28;6858;-52
2023/03/23 08:10:45;;;;;;;;;;;;;;;;;;5025258;28;7285;-52
2023/03/23 08:26:55;;;;;;;;;;;;;;;;;;5034252;28;8360;-55
2023/03/23 08:29:20;;;;;;;;;;;;;;;;;;5037749;28;6942;-51
2023/03/23 08:31:57;;;;;;;;;;;;;;;;;;5036851;28;7220;-56
2023/03/23 08:34:30;;;;;;;;;;;;;;;;;;5128419;23;7109;-95
2023/03/23 08:37:00;;;;;;;;;;;;;;;;;;5057772;28;7113;-95
2023/03/23 08:39:30;;;;;;;;;;;;;;;;;;5055306;28;8445;-95
2023/03/23 08:42:09;;;;;;;;;;;;;;;;;;5022828;28;6816;-95
2023/03/23 08:44:38;;;;;;;;;;;;;;;;;;5051936;28;6823;-95
2023/03/23 08:47:04;;;;;;;;;;;;;;;;;;5036937;28;6840;-96
2023/03/23 08:49:34;;;;;;;;;;;;;;;;;;5039392;28;6842;-96
2023/03/23 08:52:22;;;;;;;;;;;;;;;;;;5039105;28;6840;-95
2023/03/23 08:54:51;;;;;;;;;;;;;;;;;;5039276;28;6877;-95
2023/03/23 08:57:22;;;;;;;;;;;;;;;;;;5039758;28;7126;-96
2023/03/23 08:59:57;;;;;;;;;;;;;;;;;;5053966;28;6802;-95
2023/03/23 09:02:53;;;;;;;;;;;;;;;;;;;;;
2023/03/23 09:05:34;;;;;;;;;;;;;;;;;;5045928;28;6824;-95
2023/03/23 09:08:08;;;;;;;;;;;;;;;;;;5057746;28;6831;-96
2023/03/23 09:10:40;;;;;;;;;;;;;;;;;;5038253;28;6853;-94
2023/03/23 09:13:28;;;;;;;;;;;;;;;;;;5057214;28;6997;-96
2023/03/23 09:16:00;;;;;;;;;;;;;;;;;;5023175;28;6912;-95
2023/03/23 09:18:33;;;;;;;;;;;;;;;;;;5004434;28;6887;-96
2023/03/23 09:21:19;;;;;;;;;;;;;;;;;;5020056;28;6975;-95
2023/03/23 09:23:45;;;;;;;;;;;;;;;;;;5032641;28;6895;-96
2023/03/23 09:51:28;;;;;;;;;;;;;;;;;;5016279;28;7028;-55
2023/03/23 09:53:59;;;;;;;;;;;;;;;;;;5016394;28;7295;-54
2023/03/23 09:56:36;;;;;;;;;;;;;;;;;;5016340;28;7577;-55
2023/03/23 09:59:02;;;;;;;;;;;;;;;;;;5016230;28;7272;-52
2023/03/23 10:02:02;;;;;;;;;;;;;;;;;;5016038;28;6975;-50
2023/03/23 10:04:31;;;;;;;;;;;;;;;;;;5015159;28;7220;-53
2023/03/23 10:10:07;;;;;;;;;;;;;;;;;;5035515;28;6982;-52
2023/03/23 10:12:36;;;;;;;;;;;;;;;;;;5035699;28;7144;-49
2023/03/23 10:18:13;;;;;;;;;;;;;;;;;;5035270;28;6707;-51
2023/03/23 10:20:39;;;;;;;;;;;;;;;;;;5017047;28;7145;-52
2023/03/23 10:32:21;;;;;;;;;;;;;;;;;;5035181;28;6843;-55
2023/03/23 10:34:57;;;;;;;;;;;;;;;;;;5033903;28;7213;-52
2023/03/23 10:40:29;;;;;;;;;;;;;;;;;;5035011;28;6918;-50
2023/03/23 10:46:02;;;;;;;;;;;;;;;;;;5035028;28;7013;-52
2023/03/23 10:48:44;;;;;;;;;;;;;;;;;;5034485;28;7107;-54
2023/03/23 10:51:12;;;;;;;;;;;;;;;;;;5033990;28;7675;-56
2023/03/23 10:53:52;;;;;;;;;;;;;;;;;;5017068;28;8315;-54
2023/03/23 10:59:26;;;;;;;;;;;;;;;;;;5034786;28;6997;-54
2023/03/23 11:01:54;;;;;;;;;;;;;;;;;;5034044;28;7025;-54
2023/03/23 11:04:21;;;;;;;;;;;;;;;;;;5034882;28;7530;-51
2023/03/23 11:06:50;;;;;;;;;;;;;;;;;;5019124;28;7341;-54
2023/03/23 11:12:33;;;;;;;;;;;;;;;;;;5034261;28;7434;-52
2023/03/23 11:18:23;;;;;;;;;;;;;;;;;;4935526;29;6784;-50
2023/03/23 11:27:25;;;;;;;;;;;;;;;;;;4935388;29;6950;-53
2023/03/23 11:29:55;;;;;;;;;;;;;;;;;;4935360;29;7150;-52
2023/03/23 11:32:29;;;;;;;;;;;;;;;;;;4938567;29;6916;-51
2023/03/23 11:34:58;;;;;;;;;;;;;;;;;;4954709;29;7102;-54
2023/03/23 11:40:31;;;;;;;;;;;;;;;;;;4954432;29;7046;-51
2023/03/23 11:46:12;;;;;;;;;;;;;;;;;;4954324;29;6742;-55
2023/03/23 11:57:47;;;;;;;;;;;;;;;;;;4975396;28;6820;-54
2023/03/23 12:00:14;;;;;;;;;;;;;;;;;;4989960;28;7420;-52
2023/03/23 12:06:06;;;;;;;;;;;;;;;;;;4996057;28;6989;-49
2023/03/23 12:09:06;;;;;;;;;;;;;;;;;;4997912;28;6989;-53
2023/03/23 12:14:48;;;;;;;;;;;;;;;;;;4998128;28;6940;-54
2023/03/23 12:20:51;;;;;;;;;;;;;;;;;;4998309;28;6708;-52
2023/03/23 12:23:17;;;;;;;;;;;;;;;;;;4998351;28;7578;-54
2023/03/23 12:29:03;;;;;;;;;;;;;;;;;;4978612;28;6743;-51
2023/03/23 12:40:44;;;;;;;;;;;;;;;;;;4997822;28;6948;-52
2023/03/23 12:43:20;;;;;;;;;;;;;;;;;;4997908;28;7398;-50
2023/03/23 12:55:25;;;;;;;;;;;;;;;;;;5036917;28;6955;-54
2023/03/23 13:01:13;;;;;;;;;;;;;;;;;;4954221;28;7240;-54
2023/03/23 13:04:01;;;;;;;;;;;;;;;;;;4937835;29;7404;-49
2023/03/23 13:06:34;;;;;;;;;;;;;;;;;;4937495;29;6952;-54
2023/03/23 13:09:30;;;;;;;;;;;;;;;;;;4937694;29;6980;-54
2023/03/23 13:11:58;;;;;;;;;;;;;;;;;;4935618;29;7116;-53
2023/03/23 13:14:38;;;;;;;;;;;;;;;;;;4936927;29;7159;-52
2023/03/23 13:17:03;;;;;;;;;;;;;;;;;;4937276;29;7057;-52
2023/03/23 13:19:30;;;;;;;;;;;;;;;;;;4943717;28;7093;-52
2023/03/23 13:22:06;;;;;;;;;;;;;;;;;;4951316;28;7213;-51
2023/03/23 13:24:35;;;;;;;;;;;;;;;;;;4956479;28;7349;-51
2023/03/23 13:27:01;;;;;;;;;;;;;;;;;;4956362;28;7214;-52
2023/03/23 13:29:28;;;;;;;;;;;;;;;;;;4956245;28;7166;-53
2023/03/23 13:32:12;;;;;;;;;;;;;;;;;;4996836;28;7049;-51
2023/03/23 13:34:40;;;;;;;;;;;;;;;;;;5035843;28;7429;-51
2023/03/23 13:40:19;;;;;;;;;;;;;;;;;;5036132;28;6716;-52
2023/03/23 13:42:53;;;;;;;;;;;;;;;;;;5036339;28;7394;-49
2023/03/23 13:45:24;;;;;;;;;;;;;;;;;;5033291;28;7224;-47
2023/03/23 13:50:57;;;;;;;;;;;;;;;;;;5035915;28;6684;-50
2023/03/23 13:56:56;;;;;;;;;;;;;;;;;;5035729;28;6679;-51
2023/03/23 13:59:27;;;;;;;;;;;;;;;;;;5036019;28;6937;-51
2023/03/23 14:04:40;;;;;;;;;;;;;;;;;;5035841;28;6758;-52
2023/03/23 14:13:03;;;;;;;;;;;;;;;;;;5035853;28;6963;-51
2023/03/23 14:15:30;;;;;;;;;;;;;;;;;;5036034;28;7143;-50
2023/03/23 14:18:05;;;;;;;;;;;;;;;;;;5036060;28;7369;-52
2023/03/23 14:20:33;;;;;;;;;;;;;;;;;;5035594;28;7131;-52
2023/03/23 14:23:18;;;;;;;;;;;;;;;;;;5035476;28;6937;-51
2023/03/23 14:25:44;;;;;;;;;;;;;;;;;;5035569;28;7484;-51
2023/03/23 14:28:17;;;;;;;;;;;;;;;;;;5035633;28;6963;-51
2023/03/23 14:30:43;;;;;;;;;;;;;;;;;;5034833;28;7426;-51
2023/03/23 14:33:30;;;;;;;;;;;;;;;;;;5035418;28;7313;-53
2023/03/23 14:35:58;;;;;;;;;;;;;;;;;;5035079;28;6948;-51
2023/03/23 14:41:44;;;;;;;;;;;;;;;;;;5035187;28;6685;-51
2023/03/23 14:44:15;;;;;;;;;;;;;;;;;;5033731;28;7379;-53
2023/03/23 14:46:42;;;;;;;;;;;;;;;;;;5035060;28;7155;-53
2023/03/23 14:49:13;;;;;;;;;;;;;;;;;;5035734;28;7207;-52
2023/03/23 14:52:00;;;;;;;;;;;;;;;;;;5035112;28;7042;-50
2023/03/23 14:54:27;;;;;;;;;;;;;;;;;;5035511;28;7329;-51
2023/03/23 14:56:55;;;;;;;;;;;;;;;;;;5034726;28;6937;-52
2023/03/23 14:59:21;;;;;;;;;;;;;;;;;;5034731;28;7188;-53
2023/03/23 15:01:50;;;;;;;;;;;;;;;;;;5033543;28;7151;-53
2023/03/23 15:04:48;;;;;;;;;;;;;;;;;;5034869;28;6932;-50
2023/03/23 15:07:16;;;;;;;;;;;;;;;;;;5031647;23;6943;-94
2023/03/23 15:09:44;;;;;;;;;;;;;;;;;;4998308;28;6853;-94
2023/03/23 15:12:20;;;;;;;;;;;;;;;;;;4999441;28;6858;-95
2023/03/23 15:14:53;;;;;;;;;;;;;;;;;;4993256;28;7020;-92
2023/03/23 15:17:21;;;;;;;;;;;;;;;;;;5026409;28;7240;-94
2023/03/23 15:19:48;;;;;;;;;;;;;;;;;;5008073;28;6866;-94
2023/03/23 15:22:20;;;;;;;;;;;;;;;;;;5006016;28;7321;-94
2023/03/23 15:24:48;;;;;;;;;;;;;;;;;;5027096;28;6864;-95
2023/03/23 15:27:24;;;;;;;;;;;;;;;;;;5028834;28;6878;-95
2023/03/23 15:29:51;;;;;;;;;;;;;;;;;;5016454;28;6856;-94
2023/03/23 15:32:27;;;;;;;;;;;;;;;;;;5023189;28;6856;-94
2023/03/23 15:34:53;;;;;;;;;;;;;;;;;;5004009;28;6922;-94
2023/03/23 15:37:19;;;;;;;;;;;;;;;;;;5030341;28;7019;-94
2023/03/23 15:39:45;;;;;;;;;;;;;;;;;;5030036;28;8344;-93
2023/03/23 15:42:26;;;;;;;;;;;;;;;;;;5009821;28;7182;-93
2023/03/23 15:45:10;;;;;;;;;;;;;;;;;;4994678;28;7143;-93
2023/03/23 15:47:42;;;;;;;;;;;;;;;;;;4994439;28;7023;-94
2023/03/23 15:50:26;;;;;;;;;;;;;;;;;;4994467;28;6800;-93
2023/03/23 15:52:52;;;;;;;;;;;;;;;;;;4994229;28;7574;-94
2023/03/23 15:55:17;;;;;;;;;;;;;;;;;;4994077;28;7049;-93
2023/03/23 15:57:46;;;;;;;;;;;;;;;;;;4994634;28;6960;-93
2023/03/23 16:00:12;;;;;;;;;;;;;;;;;;5011013;28;6851;-93
2023/03/23 16:02:37;;;;;;;;;;;;;;;;;;4994748;28;8844;-94
2023/03/23 16:05:10;;;;;;;;;;;;;;;;;;5011862;28;7008;-96
2023/03/23 16:07:37;;;;;;;;;;;;;;;;;;4990049;23;7481;-64
2023/03/23 16:10:03;;;;;;;;;;;;;;;;;;4979267;28;7266;-61
2023/03/23 16:15:31;;;;;;;;;;;;;;;;;;4972420;28;6669;-62
2023/03/23 16:21:00;;;;;;;;;;;;;;;;;;4970368;28;6921;-61
2023/03/23 16:23:26;;;;;;;;;;;;;;;;;;4979054;28;7142;-61
2023/03/23 16:25:52;;;;;;;;;;;;;;;;;;4978301;28;7463;-61
2023/03/23 16:28:28;;;;;;;;;;;;;;;;;;4959022;28;6955;-61
2023/03/23 16:30:54;;;;;;;;;;;;;;;;;;4959391;28;6980;-61
2023/03/23 16:36:39;;;;;;;;;;;;;;;;;;4978287;28;6989;-61
2023/03/23 16:39:05;;;;;;;;;;;;;;;;;;4978600;28;7158;-61
2023/03/23 16:41:37;;;;;;;;;;;;;;;;;;4978154;28;7034;-61
2023/03/23 16:44:02;;;;;;;;;;;;;;;;;;4970532;28;7433;-61
2023/03/23 16:46:29;;;;;;;;;;;;;;;;;;4958880;28;7218;-61
2023/03/23 16:49:07;;;;;;;;;;;;;;;;;;4959105;28;6968;-61
2023/03/23 16:51:33;;;;;;;;;;;;;;;;;;4958770;28;6972;-61
2023/03/23 16:53:58;;;;;;;;;;;;;;;;;;4958822;28;6929;-61
2023/03/23 16:56:34;;;;;;;;;;;;;;;;;;4958990;28;7319;-61
2023/03/23 16:58:59;;;;;;;;;;;;;;;;;;4968601;28;6924;-61
2023/03/23 17:04:31;;;;;;;;;;;;;;;;;;4977969;28;6918;-61
2023/03/23 17:07:00;;;;;;;;;;;;;;;;;;4976752;28;7154;-61
2023/03/23 17:09:41;;;;;;;;;;;;;;;;;;4978256;28;7135;-61
2023/03/23 17:12:07;;;;;;;;;;;;;;;;;;4977837;28;6860;-61
2023/03/23 17:14:33;;;;;;;;;;;;;;;;;;4978149;28;7154;-61
2023/03/23 17:16:59;;;;;;;;;;;;;;;;;;4970726;28;7241;-61
2023/03/23 17:19:25;;;;;;;;;;;;;;;;;;4975584;28;7213;-61
2023/03/23 17:25:13;;;;;;;;;;;;;;;;;;4977691;28;7020;-61
2023/03/23 17:27:39;;;;;;;;;;;;;;;;;;4977453;28;7162;-61
2023/03/23 17:33:39;;;;;;;;;;;;;;;;;;4977399;28;6918;-61
2023/03/23 17:45:13;;;;;;;;;;;;;;;;;;4977323;28;6680;-61
2023/03/23 17:47:38;;;;;;;;;;;;;;;;;;4977614;28;7086;-61
2023/03/23 17:53:10;;;;;;;;;;;;;;;;;;4977166;28;6976;-61
2023/03/23 17:55:35;;;;;;;;;;;;;;;;;;4977334;28;7112;-61
2023/03/23 17:58:20;;;;;;;;;;;;;;;;;;4977231;28;7109;-61
2023/03/23 18:00:45;;;;;;;;;;;;;;;;;;4973273;28;6855;-61
2023/03/23 18:03:29;;;;;;;;;;;;;;;;;;4957553;28;7263;-61
2023/03/23 18:05:59;;;;;;;;;;;;;;;;;;4957800;28;7200;-61
2023/03/23 18:08:26;;;;;;;;;;;;;;;;;;4957585;28;7201;-61
2023/03/23 18:11:11;;;;;;;;;;;;;;;;;;4957689;28;6958;-61
2023/03/23 18:13:37;;;;;;;;;;;;;;;;;;4957552;28;7174;-61
2023/03/23 18:16:03;;;;;;;;;;;;;;;;;;4957523;28;7090;-61
2023/03/23 18:18:30;;;;;;;;;;;;;;;;;;4957860;28;7189;-61
2023/03/23 18:20:57;;;;;;;;;;;;;;;;;;4956202;28;8427;-61
2023/03/23 18:23:35;;;;;;;;;;;;;;;;;;4963534;28;7013;-61
2023/03/23 18:26:03;;;;;;;;;;;;;;;;;;4976611;28;7140;-61
2023/03/23 18:28:28;;;;;;;;;;;;;;;;;;4958994;28;7484;-61
2023/03/23 18:30:54;;;;;;;;;;;;;;;;;;4974808;28;7380;-61
2023/03/23 18:33:20;;;;;;;;;;;;;;;;;;4975368;28;7254;-61
2023/03/23 18:35:46;;;;;;;;;;;;;;;;;;4976222;28;7060;-61
2023/03/23 18:38:31;;;;;;;;;;;;;;;;;;4976458;28;7019;-61
2023/03/23 18:40:58;;;;;;;;;;;;;;;;;;4976489;28;6989;-61
2023/03/23 18:43:24;;;;;;;;;;;;;;;;;;4975939;28;6967;-61
2023/03/23 18:46:16;;;;;;;;;;;;;;;;;;4976029;28;7239;-61
2023/03/23 18:48:41;;;;;;;;;;;;;;;;;;4976308;28;7428;-61
2023/03/23 18:51:25;;;;;;;;;;;;;;;;;;4976252;28;7402;-61
2023/03/23 18:53:50;;;;;;;;;;;;;;;;;;4976420;28;7288;-61
2023/03/23 18:56:17;;;;;;;;;;;;;;;;;;4976230;28;7143;-61
2023/03/23 18:58:43;;;;;;;;;;;;;;;;;;4975851;28;8330;-61
2023/03/23 19:01:16;;;;;;;;;;;;;;;;;;4976244;28;7195;-61
2023/03/23 19:03:43;;;;;;;;;;;;;;;;;;4976207;28;7136;-61
2023/03/23 19:09:31;;;;;;;;;;;;;;;;;;4975878;28;6766;-61
2023/03/23 19:11:58;;;;;;;;;;;;;;;;;;4976207;28;7162;-61
2023/03/23 19:14:23;;;;;;;;;;;;;;;;;;4975767;28;7229;-61
2023/03/23 19:20:02;;;;;;;;;;;;;;;;;;4975811;28;6700;-61
2023/03/23 19:22:28;;;;;;;;;;;;;;;;;;4975985;28;7385;-61
2023/03/23 19:24:53;;;;;;;;;;;;;;;;;;4975968;28;6939;-61
2023/03/23 19:27:35;;;;;;;;;;;;;;;;;;4975813;28;7164;-61
2023/03/23 19:30:01;;;;;;;;;;;;;;;;;;4976236;28;7212;-61
2023/03/23 19:32:50;;;;;;;;;;;;;;;;;;4970751;28;7006;-61
2023/03/23 19:35:16;;;;;;;;;;;;;;;;;;4957034;29;7511;-61
2023/03/23 19:37:41;;;;;;;;;;;;;;;;;;4959457;28;7405;-61
2023/03/23 19:40:15;;;;;;;;;;;;;;;;;;4975559;28;7110;-61
2023/03/23 19:42:41;;;;;;;;;;;;;;;;;;4975784;28;7451;-61
2023/03/23 19:45:15;;;;;;;;;;;;;;;;;;4975417;28;6947;-61
2023/03/23 19:47:40;;;;;;;;;;;;;;;;;;4975121;28;7395;-61
2023/03/23 19:50:06;;;;;;;;;;;;;;;;;;4975710;28;6942;-61
2023/03/23 19:52:34;;;;;;;;;;;;;;;;;;4976586;28;6965;-61
2023/03/23 19:55:00;;;;;;;;;;;;;;;;;;4975405;28;6940;-61
2023/03/23 19:57:35;;;;;;;;;;;;;;;;;;4975555;28;6819;-61
2023/03/23 20:00:02;;;;;;;;;;;;;;;;;;4975582;28;7400;-61
2023/03/23 20:05:48;;;;;;;;;;;;;;;;;;4975460;28;6712;-61
2023/03/23 20:08:13;;;;;;;;;;;;;;;;;;4974570;28;6966;-61
2023/03/23 20:13:42;;;;;;;;;;;;;;;;;;4969132;28;6756;-61
2023/03/23 20:16:28;;;;;;;;;;;;;;;;;;4972831;28;6842;-61
2023/03/23 20:19:10;;;;;;;;;;;;;;;;;;4958047;28;7352;-61
2023/03/23 20:21:35;;;;;;;;;;;;;;;;;;4956784;28;6950;-61
2023/03/23 20:24:01;;;;;;;;;;;;;;;;;;4959336;28;7250;-61
2023/03/23 20:26:37;;;;;;;;;;;;;;;;;;4959232;28;6945;-61
2023/03/23 20:29:03;;;;;;;;;;;;;;;;;;4969177;28;7148;-61
2023/03/23 20:31:31;;;;;;;;;;;;;;;;;;4959256;28;8132;-61
2023/03/23 20:37:16;;;;;;;;;;;;;;;;;;4972100;28;6946;-61
2023/03/23 20:39:44;;;;;;;;;;;;;;;;;;4978045;28;6970;-61
2023/03/23 20:42:28;;;;;;;;;;;;;;;;;;4978157;28;7240;-61
2023/03/23 20:44:54;;;;;;;;;;;;;;;;;;4978282;28;7369;-61
2023/03/23 20:47:20;;;;;;;;;;;;;;;;;;4977919;28;7765;-61
2023/03/23 20:49:57;;;;;;;;;;;;;;;;;;4978528;28;7403;-61
2023/03/23 20:52:24;;;;;;;;;;;;;;;;;;4978396;28;7080;-61
2023/03/23 20:54:59;;;;;;;;;;;;;;;;;;4978218;28;7152;-61
2023/03/23 20:57:26;;;;;;;;;;;;;;;;;;4978327;28;7357;-61
2023/03/23 21:00:15;;;;;;;;;;;;;;;;;;4978347;28;7151;-61
2023/03/23 21:05:43;;;;;;;;;;;;;;;;;;4977969;28;6687;-61
2023/03/23 21:08:12;;;;;;;;;;;;;;;;;;4976946;28;7150;-61
2023/03/23 21:10:45;;;;;;;;;;;;;;;;;;4978119;28;7308;-61
2023/03/23 21:13:11;;;;;;;;;;;;;;;;;;4978085;28;7023;-61
2023/03/23 21:18:34;;;;;;;;;;;;;;;;;;4977973;28;6764;-61
2023/03/23 21:21:00;;;;;;;;;;;;;;;;;;4978053;28;7228;-61
2023/03/23 21:23:28;;;;;;;;;;;;;;;;;;4977885;28;7250;-61
2023/03/23 21:26:09;;;;;;;;;;;;;;;;;;4977686;28;6905;-61
2023/03/23 21:28:35;;;;;;;;;;;;;;;;;;4977458;28;7521;-61
2023/03/23 21:37:06;;;;;;;;;;;;;;;;;;4977377;28;7440;-61
2023/03/23 21:42:46;;;;;;;;;;;;;;;;;;4976981;28;6926;-61
2023/03/23 21:45:13;;;;;;;;;;;;;;;;;;4976704;28;6962;-61
2023/03/23 21:47:58;;;;;;;;;;;;;;;;;;4977065;28;6941;-61
2023/03/23 21:50:24;;;;;;;;;;;;;;;;;;4977739;28;7161;-61
2023/03/23 21:55:53;;;;;;;;;;;;;;;;;;4977068;28;6684;-61
2023/03/23 21:58:23;;;;;;;;;;;;;;;;;;4977727;28;7036;-61
2023/03/23 22:06:55;;;;;;;;;;;;;;;;;;4976439;28;6851;-61
2023/03/23 22:09:20;;;;;;;;;;;;;;;;;;4976668;28;7033;-61
2023/03/23 22:15:02;;;;;;;;;;;;;;;;;;4976891;28;6679;-61
2023/03/23 22:17:27;;;;;;;;;;;;;;;;;;4977470;28;7218;-61
2023/03/23 22:19:59;;;;;;;;;;;;;;;;;;4976966;28;6903;-61
2023/03/23 22:22:25;;;;;;;;;;;;;;;;;;4976798;28;7033;-61
2023/03/23 22:24:50;;;;;;;;;;;;;;;;;;4976642;28;6929;-61
2023/03/23 22:27:45;;;;;;;;;;;;;;;;;;4976579;28;6793;-61
2023/03/23 22:30:12;;;;;;;;;;;;;;;;;;4976645;28;7079;-61
2023/03/23 22:35:50;;;;;;;;;;;;;;;;;;4976394;28;6931;-61
2023/03/23 22:38:16;;;;;;;;;;;;;;;;;;4976774;28;7089;-61
2023/03/23 22:46:44;;;;;;;;;;;;;;;;;;4976523;28;6940;-61
2023/03/23 22:49:22;;;;;;;;;;;;;;;;;;4976420;28;7158;-61
2023/03/23 22:51:48;;;;;;;;;;;;;;;;;;4976321;28;7497;-61
2023/03/23 22:54:21;;;;;;;;;;;;;;;;;;4976247;28;6800;-61
2023/03/23 22:56:47;;;;;;;;;;;;;;;;;;4975789;28;7394;-61
2023/03/23 22:59:13;;;;;;;;;;;;;;;;;;4976279;28;6981;-61
2023/03/23 23:01:38;;;;;;;;;;;;;;;;;;4976207;28;7132;-61
2023/03/23 23:04:20;;;;;;;;;;;;;;;;;;4975952;28;7538;-61
2023/03/23 23:06:45;;;;;;;;;;;;;;;;;;4975949;28;7129;-61
2023/03/23 23:09:11;;;;;;;;;;;;;;;;;;4975847;28;6961;-61
2023/03/23 23:11:45;;;;;;;;;;;;;;;;;;4976005;28;7027;-61
2023/03/23 23:14:11;;;;;;;;;;;;;;;;;;4976163;28;7201;-61
2023/03/23 23:19:40;;;;;;;;;;;;;;;;;;4975710;28;7037;-61